Tiger — 9HA2271 — position and weather

sailwx.info

Track history (hours):
 
Tides and Currents Weather Stations Pressure Air Temp Water Temp Dewpoint Dewpoint Depression Visibility Wind Speed Wind Dir Waves Ship Positions

Tiger

Last reported at 2016-Apr-29 03:33 UTC. Time now 2016-Apr-29 06:01 UTC.
Position N 49°50' W 003°54'.

Length 228 m; draft 10.1 m.

Type: Cargo ship. MMSI: 248223000.

Date/timePositionNaut miles runAvg speedWind from/ knotsBaromVisibWave heightAir tempDewpointWater temp
2016-Apr-29 03:33N 49°50' W 003°54'1918.7
2016-Apr-29 02:33N 49°56' W 003°26'1818.0
2016-Apr-29 01:33N 49°60' W 002°59'6516.1
2016-Apr-28 21:31N 50°25' W 001°24'1616.6
2016-Apr-28 20:33N 50°33' W 001°03'1110.6
2016-Apr-28 19:34N 50°43' W 001°00'1313.0
2016-Apr-28 18:34N 50°49' W 001°18'5 5.4
2016-Apr-28 17:33N 50°53' W 001°24'0 0.0
2016-Apr-28 16:33N 50°53' W 001°24'0 0.0
2016-Apr-28 15:33N 50°53' W 001°24'0 0.0
2016-Apr-28 14:33N 50°53' W 001°24'0 0.0
2016-Apr-28 13:33N 50°53' W 001°24'0 0.0
2016-Apr-28 12:33N 50°53' W 001°24'0 0.0
2016-Apr-28 11:33N 50°53' W 001°24'0 0.0
2016-Apr-28 10:33N 50°53' W 001°24'0 0.0
2016-Apr-28 09:33N 50°53' W 001°24'0 0.0
2016-Apr-28 08:30N 50°53' W 001°24'0 0.0
2016-Apr-28 07:33N 50°53' W 001°24'0 0.0
2016-Apr-28 06:33N 50°53' W 001°24'5 4.7
2016-Apr-28 05:33N 50°50' W 001°19'1111.0
2016-Apr-28 04:33N 50°44' W 001°04'10 9.9
2016-Apr-28 03:33N 50°38' W 000°52'7 7.1
2016-Apr-28 02:33N 50°34' W 000°43'8 8.2
2016-Apr-28 01:33N 50°33' W 000°30'1110.3
2016-Apr-28 00:30N 50°32' W 000°13'1212.4
2016-Apr-27 23:33N 50°33' E 000°05'1212.1
2016-Apr-27 22:34N 50°36' E 000°24'3115.6
2016-Apr-27 20:33N 50°52' E 001°06'1716.8
2016-Apr-27 19:33N 51°03' E 001°26'1515.4
2016-Apr-27 18:33N 51°13' E 001°45'1414.0
2016-Apr-27 17:33N 51°25' E 001°58'1414.2
2016-Apr-27 16:33N 51°21' E 002°20'1413.6
2016-Apr-27 15:33N 51°22' E 002°42'1413.8
2016-Apr-27 14:32N 51°24' E 003°04'7 7.3
2016-Apr-27 13:33N 51°20' E 003°13'0 0.5
2016-Apr-27 12:33N 51°20' E 003°13'1 0.8
2016-Apr-27 11:32N 51°19' E 003°14'0 0.0
2016-Apr-27 10:32N 51°19' E 003°14'0 0.0
2016-Apr-27 09:32N 51°19' E 003°14'0 0.0
2016-Apr-27 08:32N 51°19' E 003°14'0 0.0
2016-Apr-27 07:29N 51°19' E 003°14'0 0.0
2016-Apr-27 06:29N 51°19' E 003°14'0 0.0
2016-Apr-27 05:32N 51°19' E 003°14'0 0.0
2016-Apr-27 04:32N 51°19' E 003°14'0 0.0
2016-Apr-27 03:32N 51°19' E 003°14'0 0.0
2016-Apr-27 02:29N 51°19' E 003°14'0 0.0
2016-Apr-27 01:32N 51°19' E 003°14'0 0.0
2016-Apr-27 00:32N 51°19' E 003°14'0 0.0
2016-Apr-26 23:32N 51°19' E 003°14'0 0.0
2016-Apr-26 22:32N 51°19' E 003°14'0 0.0
2016-Apr-26 21:32N 51°19' E 003°14'0 0.0
2016-Apr-26 20:32N 51°19' E 003°14'0 0.0
2016-Apr-26 19:32N 51°19' E 003°14'0 0.0
2016-Apr-26 18:32N 51°19' E 003°14'0 0.0
2016-Apr-26 17:32N 51°19' E 003°14'0 0.0
2016-Apr-26 16:32N 51°19' E 003°14'0 0.0
2016-Apr-26 15:32N 51°19' E 003°14'0 0.0
2016-Apr-26 14:32N 51°19' E 003°14'0 0.0
2016-Apr-26 13:32N 51°19' E 003°14'0 0.0
2016-Apr-26 12:32N 51°19' E 003°14'0 0.0
2016-Apr-26 11:32N 51°19' E 003°14'0 0.0
2016-Apr-26 10:32N 51°19' E 003°14'0 0.0
2016-Apr-26 09:32N 51°19' E 003°14'0 0.0
2016-Apr-26 08:32N 51°19' E 003°14'0 0.0
2016-Apr-26 07:32N 51°19' E 003°14'0 0.0
2016-Apr-26 06:32N 51°19' E 003°14'0 0.0
2016-Apr-26 05:32N 51°19' E 003°14'0 0.0
2016-Apr-26 04:26N 51°19' E 003°14'0 0.0
2016-Apr-26 03:32N 51°19' E 003°14'0 0.0
2016-Apr-26 02:31N 51°19' E 003°14'1 1.3
2016-Apr-26 01:33N 51°20' E 003°13'1 0.5
2016-Apr-26 00:33N 51°21' E 003°13'10 9.7
2016-Apr-25 23:33N 51°25' E 002°58'1010.3
2016-Apr-25 22:33N 51°23' E 002°42'7 6.9
2016-Apr-25 21:33N 51°30' E 002°41'119 9.9
2016-Apr-25 09:33N 53°11' E 004°24'30 9.9
2016-Apr-25 06:34N 53°32' E 004°57'1010.2
2016-Apr-25 05:34N 53°36' E 005°13'1010.1
2016-Apr-25 04:33N 53°39' E 005°29'1010.2
2016-Apr-25 03:33N 53°43' E 005°46'1010.2
2016-Apr-25 02:34N 53°46' E 006°02'1010.3
2016-Apr-25 01:33N 53°49' E 006°19'1010.5
2016-Apr-25 00:34N 53°51' E 006°36'1110.9
2016-Apr-24 23:34N 53°53' E 006°54'1110.9
2016-Apr-24 22:34N 53°56' E 007°12'1110.6
2016-Apr-24 21:33N 53°59' E 007°29'9 9.5
2016-Apr-24 20:34N 53°55' E 007°44'1111.0
2016-Apr-24 19:33N 53°51' E 008°02'1716.6
2016-Apr-24 18:33N 53°40' E 008°23'8 8.4
2016-Apr-24 17:33N 53°34' E 008°33'0 0.4
2016-Apr-24 16:27N 53°35' E 008°33'0 0.0
2016-Apr-24 15:33N 53°35' E 008°33'0 0.0
2016-Apr-24 14:33N 53°35' E 008°33'0 0.0
2016-Apr-24 13:33N 53°35' E 008°33'0 0.0
2016-Apr-24 12:30N 53°35' E 008°33'0 0.0
2016-Apr-24 11:33N 53°35' E 008°33'0 0.0
2016-Apr-24 10:33N 53°35' E 008°33'0 0.0
2016-Apr-24 09:33N 53°35' E 008°33'0 0.0
2016-Apr-24 08:33N 53°35' E 008°33'0 0.0
2016-Apr-24 07:33N 53°35' E 008°33'0 0.0
2016-Apr-24 06:33N 53°35' E 008°33'0 0.0
2016-Apr-24 05:33N 53°35' E 008°33'0 0.0
2016-Apr-24 04:33N 53°35' E 008°33'0 0.0
2016-Apr-24 03:33N 53°35' E 008°33'0 0.0
2016-Apr-24 02:33N 53°35' E 008°33'0 0.0
2016-Apr-24 01:33N 53°35' E 008°33'0 0.0
2016-Apr-24 00:33N 53°35' E 008°33'0 0.0
2016-Apr-23 23:33N 53°35' E 008°33'0 0.0
2016-Apr-23 22:33N 53°35' E 008°33'0 0.0
2016-Apr-23 21:33N 53°35' E 008°33'0 0.0
2016-Apr-23 20:33N 53°35' E 008°33'0 0.0
2016-Apr-23 19:33N 53°35' E 008°33'0 0.0
2016-Apr-23 18:33N 53°35' E 008°33'0 0.0
2016-Apr-23 17:33N 53°35' E 008°33'0 0.0
2016-Apr-23 16:33N 53°35' E 008°33'0 0.0
2016-Apr-23 15:33N 53°35' E 008°33'0 0.0
2016-Apr-23 14:33N 53°35' E 008°33'0 0.0
2016-Apr-23 13:33N 53°35' E 008°33'0 0.0
2016-Apr-23 12:33N 53°35' E 008°33'0 0.0
2016-Apr-23 11:33N 53°35' E 008°33'0 0.0
2016-Apr-23 10:30N 53°35' E 008°33'0 0.0
2016-Apr-23 09:33N 53°35' E 008°33'0 0.0
2016-Apr-23 08:33N 53°35' E 008°33'0 0.0
2016-Apr-23 07:33N 53°35' E 008°33'0 0.0
2016-Apr-23 06:33N 53°35' E 008°33'0 0.0
2016-Apr-23 05:33N 53°35' E 008°33'0 0.0
2016-Apr-23 04:33N 53°35' E 008°33'0 0.0
2016-Apr-23 03:33N 53°35' E 008°33'0 0.0
2016-Apr-23 02:33N 53°35' E 008°33'0 0.5
2016-Apr-23 01:33N 53°34' E 008°33'6 5.9
2016-Apr-23 00:34N 53°38' E 008°26'1818.5
2016-Apr-22 23:33N 53°51' E 008°03'1212.1
2016-Apr-22 22:33N 53°53' E 007°43'7 7.1
2016-Apr-22 21:33N 53°54' E 007°31'7 7.2
2016-Apr-22 20:34N 53°52' E 007°19'8 7.7
2016-Apr-22 19:33N 53°50' E 007°06'9 8.7
2016-Apr-22 18:34N 53°49' E 006°52'8 8.1
2016-Apr-22 17:33N 53°47' E 006°38'8 8.0
2016-Apr-22 16:33N 53°45' E 006°25'8 8.1
2016-Apr-22 15:34N 53°43' E 006°12'8 8.0
2016-Apr-22 14:34N 53°41' E 005°59'8 8.0
2016-Apr-22 13:34N 53°38' E 005°46'8 7.9
2016-Apr-22 12:34N 53°36' E 005°33'8 8.0
2016-Apr-22 11:33N 53°33' E 005°21'8 7.8
2016-Apr-22 10:34N 53°30' E 005°08'44 8.9
2016-Apr-22 05:33N 52°57' E 004°19'2411.8
2016-Apr-22 03:30N 52°37' E 003°56'1212.3
2016-Apr-22 02:30N 52°29' E 003°41'1213.0
2016-Apr-22 01:32N 52°20' E 003°26'1312.7
2016-Apr-22 00:33N 52°11' E 003°12'1212.0
2016-Apr-21 23:33N 52°01' E 003°01'1210.9
2016-Apr-21 22:26N 51°53' E 002°46'910.4
2016-Apr-21 21:33N 51°46' E 002°37'1010.0
2016-Apr-21 20:33N 51°39' E 002°26'1010.3
2016-Apr-21 19:34N 51°31' E 002°15'10 9.8
2016-Apr-21 18:34N 51°24' E 002°04'1010.2
2016-Apr-21 17:34N 51°16' E 001°53'1010.5
2016-Apr-21 16:34N 51°08' E 001°43'1110.8
2016-Apr-21 15:34N 50°60' E 001°32'1111.4
2016-Apr-21 14:34N 50°49' E 001°26'1311.5
2016-Apr-21 13:24N 50°37' E 001°15'3512.2
2016-Apr-21 10:33N 50°24' E 000°25'1615.7
2016-Apr-21 09:31N 50°20' E 000°00'1616.5
2016-Apr-21 08:33N 50°16' W 000°24'1817.3
2016-Apr-21 07:32N 50°12' W 000°51'3417.1
2016-Apr-21 05:31N 50°03' W 001°42'1616.8
2016-Apr-21 04:33N 49°59' W 002°07'1515.4
2016-Apr-21 03:33N 49°55' W 002°30'1514.5
2016-Apr-21 02:33N 49°51' W 002°51'1414.1
2016-Apr-21 01:33N 49°47' W 003°12'1414.1
2016-Apr-21 00:33N 49°44' W 003°34'1413.6
2016-Apr-20 23:33N 49°43' W 003°55'1613.9
2016-Apr-20 22:25N 49°42' W 004°19'1313.8
2016-Apr-20 21:30N 49°40' W 004°39'3214.1
2016-Apr-20 19:15N 49°38' W 005°28'  
Track history (hours):
 
Tides and Currents Weather Stations Pressure Air Temp Water Temp Dewpoint Dewpoint Depression Visibility Wind Speed Wind Dir Waves Ship Positions

Tiger

Last reported at 2016-Apr-29 03:33 UTC. Time now 2016-Apr-29 06:01 UTC.
Position N 49°50' W 003°54'.

Length 228 m; draft 10.1 m.

Type: Cargo ship. MMSI: 248223000.

Date/timePositionNaut miles runAvg speedWind from/ knotsBaromVisibWave heightAir tempDewpointWater temp
2016-Apr-29 03:33N 49°50' W 003°54'1918.7
2016-Apr-29 02:33N 49°56' W 003°26'1818.0
2016-Apr-29 01:33N 49°60' W 002°59'6516.1
2016-Apr-28 21:31N 50°25' W 001°24'1616.6
2016-Apr-28 20:33N 50°33' W 001°03'1110.6
2016-Apr-28 19:34N 50°43' W 001°00'1313.0
2016-Apr-28 18:34N 50°49' W 001°18'5 5.4
2016-Apr-28 17:33N 50°53' W 001°24'0 0.0
2016-Apr-28 16:33N 50°53' W 001°24'0 0.0
2016-Apr-28 15:33N 50°53' W 001°24'0 0.0
2016-Apr-28 14:33N 50°53' W 001°24'0 0.0
2016-Apr-28 13:33N 50°53' W 001°24'0 0.0
2016-Apr-28 12:33N 50°53' W 001°24'0 0.0
2016-Apr-28 11:33N 50°53' W 001°24'0 0.0
2016-Apr-28 10:33N 50°53' W 001°24'0 0.0
2016-Apr-28 09:33N 50°53' W 001°24'0 0.0
2016-Apr-28 08:30N 50°53' W 001°24'0 0.0
2016-Apr-28 07:33N 50°53' W 001°24'0 0.0
2016-Apr-28 06:33N 50°53' W 001°24'5 4.7
2016-Apr-28 05:33N 50°50' W 001°19'1111.0
2016-Apr-28 04:33N 50°44' W 001°04'10 9.9
2016-Apr-28 03:33N 50°38' W 000°52'7 7.1
2016-Apr-28 02:33N 50°34' W 000°43'8 8.2
2016-Apr-28 01:33N 50°33' W 000°30'1110.3
2016-Apr-28 00:30N 50°32' W 000°13'1212.4
2016-Apr-27 23:33N 50°33' E 000°05'1212.1
2016-Apr-27 22:34N 50°36' E 000°24'3115.6
2016-Apr-27 20:33N 50°52' E 001°06'1716.8
2016-Apr-27 19:33N 51°03' E 001°26'1515.4
2016-Apr-27 18:33N 51°13' E 001°45'1414.0
2016-Apr-27 17:33N 51°25' E 001°58'1414.2
2016-Apr-27 16:33N 51°21' E 002°20'1413.6
2016-Apr-27 15:33N 51°22' E 002°42'1413.8
2016-Apr-27 14:32N 51°24' E 003°04'7 7.3
2016-Apr-27 13:33N 51°20' E 003°13'0 0.5
2016-Apr-27 12:33N 51°20' E 003°13'1 0.8
2016-Apr-27 11:32N 51°19' E 003°14'0 0.0
2016-Apr-27 10:32N 51°19' E 003°14'0 0.0
2016-Apr-27 09:32N 51°19' E 003°14'0 0.0
2016-Apr-27 08:32N 51°19' E 003°14'0 0.0
2016-Apr-27 07:29N 51°19' E 003°14'0 0.0
2016-Apr-27 06:29N 51°19' E 003°14'0 0.0
2016-Apr-27 05:32N 51°19' E 003°14'0 0.0
2016-Apr-27 04:32N 51°19' E 003°14'0 0.0
2016-Apr-27 03:32N 51°19' E 003°14'0 0.0
2016-Apr-27 02:29N 51°19' E 003°14'0 0.0
2016-Apr-27 01:32N 51°19' E 003°14'0 0.0
2016-Apr-27 00:32N 51°19' E 003°14'0 0.0
2016-Apr-26 23:32N 51°19' E 003°14'0 0.0
2016-Apr-26 22:32N 51°19' E 003°14'0 0.0
2016-Apr-26 21:32N 51°19' E 003°14'0 0.0
2016-Apr-26 20:32N 51°19' E 003°14'0 0.0
2016-Apr-26 19:32N 51°19' E 003°14'0 0.0
2016-Apr-26 18:32N 51°19' E 003°14'0 0.0
2016-Apr-26 17:32N 51°19' E 003°14'0 0.0
2016-Apr-26 16:32N 51°19' E 003°14'0 0.0
2016-Apr-26 15:32N 51°19' E 003°14'0 0.0
2016-Apr-26 14:32N 51°19' E 003°14'0 0.0
2016-Apr-26 13:32N 51°19' E 003°14'0 0.0
2016-Apr-26 12:32N 51°19' E 003°14'0 0.0
2016-Apr-26 11:32N 51°19' E 003°14'0 0.0
2016-Apr-26 10:32N 51°19' E 003°14'0 0.0
2016-Apr-26 09:32N 51°19' E 003°14'0 0.0
2016-Apr-26 08:32N 51°19' E 003°14'0 0.0
2016-Apr-26 07:32N 51°19' E 003°14'0 0.0
2016-Apr-26 06:32N 51°19' E 003°14'0 0.0
2016-Apr-26 05:32N 51°19' E 003°14'0 0.0
2016-Apr-26 04:26N 51°19' E 003°14'0 0.0
2016-Apr-26 03:32N 51°19' E 003°14'0 0.0
2016-Apr-26 02:31N 51°19' E 003°14'1 1.3
2016-Apr-26 01:33N 51°20' E 003°13'1 0.5
2016-Apr-26 00:33N 51°21' E 003°13'10 9.7
2016-Apr-25 23:33N 51°25' E 002°58'1010.3
2016-Apr-25 22:33N 51°23' E 002°42'7 6.9
2016-Apr-25 21:33N 51°30' E 002°41'119 9.9
2016-Apr-25 09:33N 53°11' E 004°24'30 9.9
2016-Apr-25 06:34N 53°32' E 004°57'1010.2
2016-Apr-25 05:34N 53°36' E 005°13'1010.1
2016-Apr-25 04:33N 53°39' E 005°29'1010.2
2016-Apr-25 03:33N 53°43' E 005°46'1010.2
2016-Apr-25 02:34N 53°46' E 006°02'1010.3
2016-Apr-25 01:33N 53°49' E 006°19'1010.5
2016-Apr-25 00:34N 53°51' E 006°36'1110.9
2016-Apr-24 23:34N 53°53' E 006°54'1110.9
2016-Apr-24 22:34N 53°56' E 007°12'1110.6
2016-Apr-24 21:33N 53°59' E 007°29'9 9.5
2016-Apr-24 20:34N 53°55' E 007°44'1111.0
2016-Apr-24 19:33N 53°51' E 008°02'1716.6
2016-Apr-24 18:33N 53°40' E 008°23'8 8.4
2016-Apr-24 17:33N 53°34' E 008°33'0 0.4
2016-Apr-24 16:27N 53°35' E 008°33'0 0.0
2016-Apr-24 15:33N 53°35' E 008°33'0 0.0
2016-Apr-24 14:33N 53°35' E 008°33'0 0.0
2016-Apr-24 13:33N 53°35' E 008°33'0 0.0
2016-Apr-24 12:30N 53°35' E 008°33'0 0.0
2016-Apr-24 11:33N 53°35' E 008°33'0 0.0
2016-Apr-24 10:33N 53°35' E 008°33'0 0.0
2016-Apr-24 09:33N 53°35' E 008°33'0 0.0
2016-Apr-24 08:33N 53°35' E 008°33'0 0.0
2016-Apr-24 07:33N 53°35' E 008°33'0 0.0
2016-Apr-24 06:33N 53°35' E 008°33'0 0.0
2016-Apr-24 05:33N 53°35' E 008°33'0 0.0
2016-Apr-24 04:33N 53°35' E 008°33'0 0.0
2016-Apr-24 03:33N 53°35' E 008°33'0 0.0
2016-Apr-24 02:33N 53°35' E 008°33'0 0.0
2016-Apr-24 01:33N 53°35' E 008°33'0 0.0
2016-Apr-24 00:33N 53°35' E 008°33'0 0.0
2016-Apr-23 23:33N 53°35' E 008°33'0 0.0
2016-Apr-23 22:33N 53°35' E 008°33'0 0.0
2016-Apr-23 21:33N 53°35' E 008°33'0 0.0
2016-Apr-23 20:33N 53°35' E 008°33'0 0.0
2016-Apr-23 19:33N 53°35' E 008°33'0 0.0
2016-Apr-23 18:33N 53°35' E 008°33'0 0.0
2016-Apr-23 17:33N 53°35' E 008°33'0 0.0
2016-Apr-23 16:33N 53°35' E 008°33'0 0.0
2016-Apr-23 15:33N 53°35' E 008°33'0 0.0
2016-Apr-23 14:33N 53°35' E 008°33'0 0.0
2016-Apr-23 13:33N 53°35' E 008°33'0 0.0
2016-Apr-23 12:33N 53°35' E 008°33'0 0.0
2016-Apr-23 11:33N 53°35' E 008°33'0 0.0
2016-Apr-23 10:30N 53°35' E 008°33'0 0.0
2016-Apr-23 09:33N 53°35' E 008°33'0 0.0
2016-Apr-23 08:33N 53°35' E 008°33'0 0.0
2016-Apr-23 07:33N 53°35' E 008°33'0 0.0
2016-Apr-23 06:33N 53°35' E 008°33'0 0.0
2016-Apr-23 05:33N 53°35' E 008°33'0 0.0
2016-Apr-23 04:33N 53°35' E 008°33'0 0.0
2016-Apr-23 03:33N 53°35' E 008°33'0 0.0
2016-Apr-23 02:33N 53°35' E 008°33'0 0.5
2016-Apr-23 01:33N 53°34' E 008°33'6 5.9
2016-Apr-23 00:34N 53°38' E 008°26'1818.5
2016-Apr-22 23:33N 53°51' E 008°03'1212.1
2016-Apr-22 22:33N 53°53' E 007°43'7 7.1
2016-Apr-22 21:33N 53°54' E 007°31'7 7.2
2016-Apr-22 20:34N 53°52' E 007°19'8 7.7
2016-Apr-22 19:33N 53°50' E 007°06'9 8.7
2016-Apr-22 18:34N 53°49' E 006°52'8 8.1
2016-Apr-22 17:33N 53°47' E 006°38'8 8.0
2016-Apr-22 16:33N 53°45' E 006°25'8 8.1
2016-Apr-22 15:34N 53°43' E 006°12'8 8.0
2016-Apr-22 14:34N 53°41' E 005°59'8 8.0
2016-Apr-22 13:34N 53°38' E 005°46'8 7.9
2016-Apr-22 12:34N 53°36' E 005°33'8 8.0
2016-Apr-22 11:33N 53°33' E 005°21'8 7.8
2016-Apr-22 10:34N 53°30' E 005°08'44 8.9
2016-Apr-22 05:33N 52°57' E 004°19'2411.8
2016-Apr-22 03:30N 52°37' E 003°56'1212.3
2016-Apr-22 02:30N 52°29' E 003°41'1213.0
2016-Apr-22 01:32N 52°20' E 003°26'1312.7
2016-Apr-22 00:33N 52°11' E 003°12'1212.0
2016-Apr-21 23:33N 52°01' E 003°01'1210.9
2016-Apr-21 22:26N 51°53' E 002°46'910.4
2016-Apr-21 21:33N 51°46' E 002°37'1010.0
2016-Apr-21 20:33N 51°39' E 002°26'1010.3
2016-Apr-21 19:34N 51°31' E 002°15'10 9.8
2016-Apr-21 18:34N 51°24' E 002°04'1010.2
2016-Apr-21 17:34N 51°16' E 001°53'1010.5
2016-Apr-21 16:34N 51°08' E 001°43'1110.8
2016-Apr-21 15:34N 50°60' E 001°32'1111.4
2016-Apr-21 14:34N 50°49' E 001°26'1311.5
2016-Apr-21 13:24N 50°37' E 001°15'3512.2
2016-Apr-21 10:33N 50°24' E 000°25'1615.7
2016-Apr-21 09:31N 50°20' E 000°00'1616.5
2016-Apr-21 08:33N 50°16' W 000°24'1817.3
2016-Apr-21 07:32N 50°12' W 000°51'3417.1
2016-Apr-21 05:31N 50°03' W 001°42'1616.8
2016-Apr-21 04:33N 49°59' W 002°07'1515.4
2016-Apr-21 03:33N 49°55' W 002°30'1514.5
2016-Apr-21 02:33N 49°51' W 002°51'1414.1
2016-Apr-21 01:33N 49°47' W 003°12'1414.1
2016-Apr-21 00:33N 49°44' W 003°34'1413.6
2016-Apr-20 23:33N 49°43' W 003°55'1613.9
2016-Apr-20 22:25N 49°42' W 004°19'1313.8
2016-Apr-20 21:30N 49°40' W 004°39'3214.1
2016-Apr-20 19:15N 49°38' W 005°28'  

Dump ship's entire track history